createdAt,value
2022-12-27T00:02:26.426Z,2.53
2022-12-27T00:04:55.066Z,2.13
2022-12-27T00:07:23.593Z,2.28
2022-12-27T00:09:52.090Z,2.25
2022-12-27T00:12:20.667Z,2.40
2022-12-27T00:14:50.731Z,2.60
2022-12-27T00:17:19.368Z,1.90
2022-12-27T00:19:47.934Z,2.15
2022-12-27T00:22:17.087Z,2.30
2022-12-27T00:24:45.614Z,2.22
2022-12-27T00:27:14.189Z,2.40
2022-12-27T00:29:42.813Z,2.28
2022-12-27T00:32:12.727Z,2.30
2022-12-27T00:34:41.231Z,2.05
2022-12-27T00:37:09.906Z,1.80
2022-12-27T00:39:38.621Z,1.95
2022-12-27T00:42:07.207Z,1.95
2022-12-27T00:44:36.461Z,1.80
2022-12-27T00:47:05.175Z,2.17
2022-12-27T00:49:35.067Z,1.85
2022-12-27T00:52:03.645Z,1.95
2022-12-27T00:54:32.584Z,1.90
2022-12-27T00:57:01.145Z,1.65
2022-12-27T00:59:29.651Z,1.67
2022-12-27T01:01:58.257Z,1.40
2022-12-27T01:04:26.857Z,1.85
2022-12-27T01:06:56.673Z,1.95
2022-12-27T01:09:25.245Z,1.77
2022-12-27T01:11:53.753Z,1.70
2022-12-27T01:14:22.300Z,1.20
2022-12-27T01:16:50.880Z,1.40
2022-12-27T01:19:19.385Z,1.80
2022-12-27T01:21:47.960Z,1.35
2022-12-27T01:24:17.844Z,1.27
2022-12-27T01:26:46.434Z,1.50
2022-12-27T01:29:15.154Z,1.65
2022-12-27T01:31:43.719Z,2.13
2022-12-27T01:34:12.444Z,1.75
2022-12-27T01:36:40.970Z,1.80
2022-12-27T01:39:11.534Z,1.60
2022-12-27T01:42:02.158Z,1.55
2022-12-27T01:44:50.272Z,1.52
2022-12-27T01:47:25.109Z,1.20
2022-12-27T01:50:01.215Z,1.88
2022-12-27T01:52:35.151Z,1.30
2022-12-27T01:55:11.885Z,1.65
2022-12-27T01:57:42.502Z,1.20
2022-12-27T02:00:12.636Z,1.35
2022-12-27T02:02:42.060Z,1.83
2022-12-27T02:05:13.531Z,1.50
2022-12-27T02:07:51.427Z,1.23
2022-12-27T02:10:20.645Z,1.58
2022-12-27T02:12:50.562Z,1.88
2022-12-27T02:15:19.213Z,1.65
2022-12-27T02:17:47.807Z,1.17
2022-12-27T02:20:19.213Z,1.55
2022-12-27T02:23:52.625Z,1.40
2022-12-27T02:26:48.746Z,1.55
2022-12-27T02:29:32.733Z,1.58
2022-12-27T02:32:07.395Z,1.50
2022-12-27T02:34:43.027Z,1.58
2022-12-27T02:37:14.590Z,1.38
2022-12-27T02:39:47.115Z,1.45
2022-12-27T02:42:35.485Z,1.50
2022-12-27T02:45:35.662Z,1.60
2022-12-27T02:48:23.174Z,0.90
2022-12-27T02:51:20.265Z,1.73
2022-12-27T02:54:03.599Z,1.40
2022-12-27T02:57:01.565Z,1.67
2022-12-27T03:00:20.164Z,1.38
2022-12-27T03:03:23.831Z,1.67
2022-12-27T03:06:42.951Z,1.63
2022-12-27T03:09:38.777Z,1.67
2022-12-27T03:12:28.534Z,1.08
2022-12-27T03:15:21.623Z,1.38
2022-12-27T03:17:57.845Z,1.38
2022-12-27T03:20:44.170Z,1.70
2022-12-27T03:23:39.563Z,1.52
2022-12-27T03:26:09.900Z,1.75
2022-12-27T03:28:57.084Z,1.33
2022-12-27T03:31:47.673Z,1.27
2022-12-27T03:34:35.630Z,1.33
2022-12-27T03:37:24.915Z,1.17
2022-12-27T03:40:02.217Z,1.40
2022-12-27T03:42:51.327Z,1.17
2022-12-27T03:45:42.522Z,1.30
2022-12-27T03:48:12.359Z,1.60
2022-12-27T03:50:48.010Z,1.23
2022-12-27T03:53:22.397Z,1.50
2022-12-27T03:55:51.101Z,1.17
2022-12-27T03:58:19.666Z,1.25
2022-12-27T04:00:48.306Z,1.42
2022-12-27T04:03:16.905Z,1.23
2022-12-27T04:05:46.800Z,1.40
2022-12-27T04:08:32.987Z,1.30
2022-12-27T04:11:18.839Z,1.55
2022-12-27T04:14:05.086Z,1.40
2022-12-27T04:16:51.969Z,1.60
2022-12-27T04:19:38.082Z,1.35
2022-12-27T04:22:25.560Z,1.67
2022-12-27T04:25:11.590Z,1.30
2022-12-27T04:27:57.677Z,1.25
2022-12-27T04:30:43.526Z,1.98
2022-12-27T04:33:29.511Z,1.55
2022-12-27T04:36:02.779Z,1.52
2022-12-27T04:38:35.836Z,1.33
2022-12-27T04:41:22.107Z,1.40
2022-12-27T04:44:08.224Z,1.67
2022-12-27T04:46:54.838Z,1.30
2022-12-27T04:49:43.606Z,1.70
2022-12-27T04:52:34.146Z,1.23
2022-12-27T04:55:20.356Z,1.40
2022-12-27T04:57:48.939Z,1.55
2022-12-27T05:00:36.317Z,1.40
2022-12-27T05:03:08.325Z,1.33
2022-12-27T05:05:38.936Z,1.35
2022-12-27T05:08:26.076Z,1.45
2022-12-27T05:11:25.088Z,1.50
2022-12-27T05:14:03.028Z,1.80
2022-12-27T05:16:33.431Z,1.50
2022-12-27T05:19:02.338Z,1.52
2022-12-27T05:21:30.957Z,1.55
2022-12-27T05:24:16.812Z,1.45
2022-12-27T05:26:46.728Z,1.52
2022-12-27T05:29:15.419Z,1.40
2022-12-27T05:31:43.980Z,1.45
2022-12-27T05:34:12.630Z,1.23
2022-12-27T05:36:44.292Z,1.10
2022-12-27T05:39:12.851Z,1.80
2022-12-27T05:41:41.566Z,1.38
2022-12-27T05:44:11.616Z,1.40
2022-12-27T05:46:41.209Z,1.40
2022-12-27T05:49:09.804Z,1.50
2022-12-27T05:51:38.325Z,1.60
2022-12-27T05:54:07.094Z,1.30
2022-12-27T05:56:37.358Z,1.45
2022-12-27T05:59:07.948Z,1.40
2022-12-27T06:01:37.967Z,1.35
2022-12-27T06:04:06.888Z,1.80
2022-12-27T06:06:35.668Z,1.20
2022-12-27T06:09:04.267Z,1.15
2022-12-27T06:11:32.803Z,1.30
2022-12-27T06:14:01.340Z,1.23
2022-12-27T06:16:29.967Z,1.33
2022-12-27T06:18:59.832Z,1.70
2022-12-27T06:21:28.398Z,1.48
2022-12-27T06:23:56.969Z,1.65
2022-12-27T06:26:27.640Z,1.33
2022-12-27T06:28:57.328Z,1.85
2022-12-27T06:31:27.301Z,1.30
2022-12-27T06:33:56.617Z,1.40
2022-12-27T06:36:27.703Z,1.50
2022-12-27T06:38:56.356Z,1.40
2022-12-27T06:41:24.904Z,1.52
2022-12-27T06:43:56.221Z,1.50
2022-12-27T06:46:25.548Z,1.60
2022-12-27T06:48:54.283Z,1.20
2022-12-27T06:51:23.084Z,1.70
2022-12-27T06:53:52.982Z,1.30
2022-12-27T06:56:23.443Z,1.63
2022-12-27T06:58:52.829Z,1.77
2022-12-27T07:01:23.524Z,1.58
2022-12-27T07:03:52.666Z,2.03
2022-12-27T07:06:22.351Z,1.60
2022-12-27T07:08:52.938Z,1.40
2022-12-27T07:11:22.278Z,1.60
2022-12-27T07:13:52.830Z,1.60
2022-12-27T07:16:23.196Z,2.10
2022-12-27T07:18:52.032Z,1.63
2022-12-27T07:21:22.710Z,1.48
2022-12-27T07:23:52.737Z,1.35
2022-12-27T07:26:23.276Z,1.33
2022-12-27T07:28:54.653Z,1.10
2022-12-27T07:31:26.350Z,1.52
2022-12-27T07:33:55.105Z,1.48
2022-12-27T07:36:27.069Z,1.63
2022-12-27T07:38:57.220Z,1.33
2022-12-27T07:41:25.911Z,1.75
2022-12-27T07:43:55.443Z,2.00
2022-12-27T07:46:26.202Z,1.83
2022-12-27T07:48:56.239Z,1.50
2022-12-27T07:51:26.146Z,1.50
2022-12-27T07:53:56.417Z,1.95
2022-12-27T07:56:27.028Z,1.40
2022-12-27T07:58:57.199Z,1.40
2022-12-27T08:01:28.513Z,1.42
2022-12-27T08:03:57.330Z,1.63
2022-12-27T08:06:29.258Z,1.90
2022-12-27T08:09:01.742Z,2.05
2022-12-27T08:11:31.073Z,2.30
2022-12-27T08:13:59.686Z,1.98
2022-12-27T08:16:28.543Z,2.00
2022-12-27T08:18:57.223Z,1.92
2022-12-27T08:21:25.860Z,1.98
2022-12-27T08:23:54.518Z,1.95
2022-12-27T08:26:24.515Z,1.63
2022-12-27T08:28:53.377Z,2.10
2022-12-27T08:31:21.889Z,1.83
2022-12-27T08:33:56.568Z,1.83
2022-12-27T08:39:15.480Z,2.10
2022-12-27T08:41:45.478Z,1.88
2022-12-27T08:44:15.667Z,2.00
2022-12-27T08:46:44.248Z,2.10
2022-12-27T08:49:12.978Z,2.10
2022-12-27T08:51:41.829Z,1.67
2022-12-27T08:54:10.730Z,1.50
2022-12-27T08:56:39.320Z,1.90
2022-12-27T08:59:09.224Z,2.00
2022-12-27T09:01:37.973Z,2.13
2022-12-27T09:04:06.812Z,1.90
2022-12-27T09:06:35.620Z,2.10
2022-12-27T09:09:04.188Z,2.00
2022-12-27T09:11:34.563Z,2.00
2022-12-27T09:14:05.445Z,2.00
2022-12-27T09:16:35.718Z,2.38
2022-12-27T09:19:05.121Z,2.15
2022-12-27T09:21:36.401Z,2.67
2022-12-27T09:24:05.367Z,2.78
2022-12-27T09:26:33.988Z,2.45
2022-12-27T09:29:02.586Z,2.22
2022-12-27T09:31:31.207Z,2.20
2022-12-27T09:34:01.239Z,2.08
2022-12-27T09:36:31.120Z,2.63
2022-12-27T09:39:00.749Z,2.20
2022-12-27T09:44:42.878Z,2.20
2022-12-27T09:47:15.550Z,1.60
2022-12-27T09:49:49.990Z,1.63
2022-12-27T09:52:22.399Z,1.80
2022-12-27T09:55:04.159Z,1.90
2022-12-27T09:57:38.175Z,1.48
2022-12-27T10:00:15.693Z,1.90
2022-12-27T10:02:45.514Z,1.75
2022-12-27T10:05:22.847Z,1.60
2022-12-27T10:08:11.564Z,1.90
2022-12-27T10:10:45.897Z,1.70
2022-12-27T10:13:30.632Z,2.08
2022-12-27T10:16:13.069Z,1.52
2022-12-27T10:18:49.391Z,1.55
2022-12-27T10:21:23.799Z,1.63
2022-12-27T10:23:56.958Z,1.60
2022-12-27T10:26:25.624Z,1.60
2022-12-27T10:29:01.012Z,1.70
2022-12-27T10:31:31.804Z,1.55
2022-12-27T10:34:05.078Z,2.15
2022-12-27T10:36:39.110Z,2.95
2022-12-27T10:39:17.192Z,2.78
2022-12-27T10:41:58.232Z,1.52
2022-12-27T10:44:26.868Z,2.00
2022-12-27T10:46:56.929Z,1.75
2022-12-27T10:49:28.041Z,2.72
2022-12-27T10:52:06.740Z,1.50
2022-12-27T10:54:35.590Z,1.85
2022-12-27T10:57:18.876Z,2.25
2022-12-27T10:59:47.452Z,2.28
2022-12-27T11:02:20.473Z,2.20
2022-12-27T11:05:01.055Z,1.35
2022-12-27T11:07:33.564Z,1.90
2022-12-27T11:10:15.342Z,1.60
2022-12-27T11:12:57.185Z,1.50
2022-12-27T11:15:27.548Z,1.60
2022-12-27T11:17:58.690Z,1.73
2022-12-27T11:20:30.742Z,1.40
2022-12-27T11:23:04.067Z,1.00
2022-12-27T11:25:33.058Z,1.35
2022-12-27T11:28:04.530Z,1.20
2022-12-27T11:30:35.565Z,0.95
2022-12-27T11:33:06.934Z,1.23
2022-12-27T11:35:46.803Z,1.25
2022-12-27T11:38:25.453Z,1.25
2022-12-27T11:41:02.096Z,1.60
2022-12-27T11:43:35.702Z,1.10
2022-12-27T11:46:07.194Z,1.17
2022-12-27T11:48:41.795Z,1.27
2022-12-27T11:51:37.484Z,1.38
2022-12-27T11:54:25.057Z,1.45
2022-12-27T11:57:01.551Z,1.38
2022-12-27T11:59:48.905Z,1.20
2022-12-27T12:02:31.758Z,1.30
2022-12-27T12:05:37.504Z,1.40
2022-12-27T12:08:28.248Z,1.25
2022-12-27T12:11:10.678Z,1.52
2022-12-27T12:14:00.136Z,1.52
2022-12-27T12:16:56.313Z,1.42
2022-12-27T12:19:55.212Z,1.42
2022-12-27T12:22:44.013Z,1.50
2022-12-27T12:25:40.335Z,1.60
2022-12-27T12:31:36.786Z,1.25
2022-12-27T12:34:18.349Z,1.58
2022-12-27T12:37:04.233Z,1.80
2022-12-27T12:39:50.406Z,1.33
2022-12-27T12:42:22.832Z,1.60
2022-12-27T12:45:25.579Z,1.65
2022-12-27T12:48:32.307Z,2.00
2022-12-27T12:51:31.301Z,1.63
2022-12-27T12:54:10.860Z,1.80
2022-12-27T12:56:57.859Z,1.77
2022-12-27T12:59:49.607Z,2.30
2022-12-27T13:02:48.280Z,2.05
2022-12-27T13:05:23.797Z,1.55
2022-12-27T13:08:02.632Z,1.92
2022-12-27T13:10:56.715Z,1.50
2022-12-27T13:13:36.663Z,1.70
2022-12-27T13:16:21.452Z,1.70
2022-12-27T13:18:58.922Z,1.45
2022-12-27T13:21:40.806Z,1.40
2022-12-27T13:24:21.057Z,1.50
2022-12-27T13:27:01.782Z,1.70
2022-12-27T13:29:52.676Z,1.30
2022-12-27T13:32:32.070Z,1.55
2022-12-27T13:35:20.395Z,1.50
2022-12-27T13:37:57.175Z,2.13
2022-12-27T13:41:00.474Z,2.10
2022-12-27T13:43:56.074Z,1.67
2022-12-27T13:46:50.487Z,1.58
2022-12-27T13:49:39.766Z,1.42
2022-12-27T13:52:22.006Z,2.03
2022-12-27T13:55:27.460Z,2.28
2022-12-27T13:58:36.474Z,1.80
2022-12-27T14:01:24.164Z,1.95
2022-12-27T14:04:15.582Z,2.22
2022-12-27T14:07:14.077Z,1.88
2022-12-27T14:10:12.219Z,1.60
2022-12-27T14:12:57.415Z,1.58
2022-12-27T14:15:34.027Z,1.63
2022-12-27T14:18:23.428Z,1.60
2022-12-27T14:21:06.866Z,2.15
2022-12-27T14:23:49.063Z,1.77
2022-12-27T14:26:56.003Z,1.60
2022-12-27T14:29:58.551Z,1.40
2022-12-27T14:32:48.969Z,1.98
2022-12-27T14:35:45.745Z,1.30
2022-12-27T14:38:44.979Z,1.60
2022-12-27T14:41:46.347Z,1.60
2022-12-27T14:44:36.789Z,1.55
2022-12-27T14:47:46.912Z,1.10
2022-12-27T14:50:46.602Z,1.10
2022-12-27T14:54:16.335Z,1.50
2022-12-27T14:56:58.661Z,1.30
2022-12-27T14:59:37.812Z,1.50
2022-12-27T15:02:32.965Z,1.65
2022-12-27T15:05:20.029Z,1.48
2022-12-27T15:08:07.439Z,1.65
2022-12-27T15:10:52.866Z,1.40
2022-12-27T15:13:32.106Z,1.60
2022-12-27T15:16:15.070Z,1.20
2022-12-27T15:19:07.349Z,1.38
2022-12-27T15:21:53.420Z,1.70
2022-12-27T15:24:30.974Z,1.70
2022-12-27T15:27:08.471Z,1.50
2022-12-27T15:29:49.465Z,1.90
2022-12-27T15:32:29.892Z,1.67
2022-12-27T15:35:11.772Z,1.67
2022-12-27T15:37:56.821Z,1.60
2022-12-27T15:41:06.053Z,1.67
2022-12-27T15:44:02.514Z,1.55
2022-12-27T15:46:50.303Z,1.52
2022-12-27T15:49:41.427Z,1.33
2022-12-27T15:52:17.143Z,1.25
2022-12-27T15:55:15.563Z,1.75
2022-12-27T15:58:09.325Z,1.42
2022-12-27T16:00:38.915Z,1.58
2022-12-27T16:03:34.854Z,1.70
2022-12-27T16:06:05.702Z,1.80
2022-12-27T16:08:37.755Z,1.38
2022-12-27T16:11:09.742Z,1.65
2022-12-27T16:13:49.277Z,1.80
2022-12-27T16:16:57.182Z,1.50
2022-12-27T16:20:12.637Z,1.40
2022-12-27T16:22:51.977Z,1.70
2022-12-27T16:25:31.080Z,1.83
2022-12-27T16:28:05.306Z,1.70
2022-12-27T16:30:53.848Z,1.70
2022-12-27T16:33:38.958Z,1.83
2022-12-27T16:36:24.836Z,1.80
2022-12-27T16:39:04.785Z,1.50
2022-12-27T16:41:57.176Z,1.95
2022-12-27T16:44:52.872Z,1.67
2022-12-27T16:47:44.738Z,2.25
2022-12-27T16:50:40.895Z,2.10
2022-12-27T16:53:19.934Z,1.90
2022-12-27T16:56:09.311Z,1.98
2022-12-27T16:58:39.201Z,1.88
2022-12-27T17:01:28.409Z,1.98
2022-12-27T17:03:58.963Z,1.80
2022-12-27T17:07:00.673Z,1.98
2022-12-27T17:09:45.770Z,1.80
2022-12-27T17:12:21.879Z,2.20
2022-12-27T17:14:55.760Z,1.98
2022-12-27T17:17:25.180Z,1.98
2022-12-27T17:20:00.247Z,2.15
2022-12-27T17:22:34.456Z,2.25
2022-12-27T17:25:04.025Z,1.98
2022-12-27T17:27:51.320Z,2.30
2022-12-27T17:30:22.002Z,2.03
2022-12-27T17:33:26.197Z,1.88
2022-12-27T17:36:13.052Z,2.30
2022-12-27T17:38:52.327Z,2.35
2022-12-27T17:41:51.031Z,2.50
2022-12-27T17:44:40.284Z,2.45
2022-12-27T17:47:26.726Z,2.35
2022-12-27T17:49:58.867Z,2.20
2022-12-27T17:52:46.285Z,2.63
2022-12-27T17:55:39.135Z,2.38
2022-12-27T17:58:10.951Z,2.15
2022-12-27T18:00:53.148Z,2.05
2022-12-27T18:03:22.583Z,1.83
2022-12-27T18:05:51.207Z,2.33
2022-12-27T18:08:27.853Z,2.55
2022-12-27T18:10:57.307Z,1.88
2022-12-27T18:13:27.637Z,2.25
2022-12-27T18:15:56.939Z,2.40
2022-12-27T18:18:30.202Z,2.80
2022-12-27T18:21:00.574Z,2.25
2022-12-27T18:23:30.749Z,2.22
2022-12-27T18:26:09.265Z,2.53
2022-12-27T18:28:41.843Z,2.53
2022-12-27T18:31:16.927Z,2.67
2022-12-27T18:33:49.686Z,2.78
2022-12-27T18:36:25.531Z,2.50
2022-12-27T18:38:59.452Z,2.90
2022-12-27T18:41:34.816Z,2.38
2022-12-27T18:44:04.389Z,2.63
2022-12-27T18:46:37.069Z,2.60
2022-12-27T18:49:06.866Z,2.75
2022-12-27T18:51:39.054Z,2.40
2022-12-27T18:54:23.747Z,2.90
2022-12-27T18:56:54.192Z,2.83
2022-12-27T18:59:26.321Z,2.70
2022-12-27T19:01:55.950Z,3.10
2022-12-27T19:04:27.886Z,2.97
2022-12-27T19:07:08.628Z,2.72
2022-12-27T19:09:41.739Z,2.22
2022-12-27T19:12:22.445Z,2.65
2022-12-27T19:14:51.532Z,2.05
2022-12-27T19:17:22.878Z,2.72
2022-12-27T19:19:54.594Z,2.85
2022-12-27T19:22:43.730Z,2.78
2022-12-27T19:25:24.544Z,2.58
2022-12-27T19:28:05.011Z,2.65
2022-12-27T19:30:37.167Z,3.30
2022-12-27T19:33:12.355Z,3.05
2022-12-27T19:35:41.954Z,3.03
2022-12-27T19:38:19.568Z,2.70
2022-12-27T19:40:51.518Z,2.25
2022-12-27T19:43:20.949Z,3.08
2022-12-27T19:45:49.525Z,2.58
2022-12-27T19:48:18.287Z,2.70
2022-12-27T19:50:50.083Z,2.90
2022-12-27T19:53:21.632Z,3.08
2022-12-27T19:55:51.922Z,2.67
2022-12-27T19:58:23.296Z,2.80
2022-12-27T20:00:51.987Z,3.10
2022-12-27T20:03:21.040Z,2.83
2022-12-27T20:06:13.795Z,2.92
2022-12-27T20:08:41.970Z,2.40
2022-12-27T20:11:15.577Z,2.55
2022-12-27T20:13:44.199Z,2.55
2022-12-27T20:16:14.193Z,2.30
2022-12-27T20:18:43.768Z,2.83
2022-12-27T20:21:14.559Z,2.92
2022-12-27T20:23:43.399Z,2.90
2022-12-27T20:26:14.367Z,2.45
2022-12-27T20:28:42.923Z,3.00
2022-12-27T20:31:13.648Z,3.05
2022-12-27T20:33:42.439Z,2.90
2022-12-27T20:36:11.976Z,2.20
2022-12-27T20:38:40.892Z,2.22
2022-12-27T20:41:12.296Z,2.50
2022-12-27T20:43:42.715Z,2.50
2022-12-27T20:46:13.363Z,3.10
2022-12-27T20:48:43.439Z,2.53
2022-12-27T20:51:14.169Z,2.47
2022-12-27T20:53:42.993Z,1.83
2022-12-27T20:56:12.956Z,2.15
2022-12-27T20:58:43.437Z,2.05
2022-12-27T21:01:14.088Z,2.65
2022-12-27T21:03:43.183Z,2.80
2022-12-27T21:06:13.469Z,2.72
2022-12-27T21:08:47.730Z,2.45
2022-12-27T21:11:19.632Z,2.22
2022-12-27T21:13:50.171Z,1.92
2022-12-27T21:16:21.035Z,2.08
2022-12-27T21:18:50.321Z,1.88
2022-12-27T21:21:21.604Z,2.13
2022-12-27T21:23:50.861Z,1.98
2022-12-27T21:26:21.089Z,2.05
2022-12-27T21:28:51.014Z,1.95
2022-12-27T21:31:20.677Z,1.88
2022-12-27T21:33:50.003Z,1.65
2022-12-27T21:36:21.557Z,2.33
2022-12-27T21:38:50.449Z,1.98
2022-12-27T21:41:21.075Z,2.05
2022-12-27T21:43:51.984Z,2.20
2022-12-27T21:46:23.180Z,1.80
2022-12-27T21:48:56.122Z,2.50
2022-12-27T21:51:25.329Z,2.30
2022-12-27T21:53:54.734Z,1.90
2022-12-27T21:56:24.065Z,1.70
2022-12-27T21:58:55.400Z,1.83
2022-12-27T22:01:26.510Z,2.00
2022-12-27T22:03:56.842Z,1.90
2022-12-27T22:06:27.688Z,1.90
2022-12-27T22:08:59.658Z,2.10
2022-12-27T22:11:29.043Z,1.65
2022-12-27T22:13:59.172Z,1.98
2022-12-27T22:16:29.635Z,2.35
2022-12-27T22:18:58.543Z,2.08
2022-12-27T22:21:30.256Z,2.17
2022-12-27T22:24:00.618Z,2.00
2022-12-27T22:26:31.455Z,1.90
2022-12-27T22:29:02.161Z,2.58
2022-12-27T22:31:35.270Z,2.00
2022-12-27T22:34:05.338Z,1.98
2022-12-27T22:36:34.418Z,2.45
2022-12-27T22:39:03.174Z,2.40
2022-12-27T22:41:33.345Z,2.55
2022-12-27T22:44:05.765Z,2.00
2022-12-27T22:49:23.491Z,1.80
2022-12-27T22:51:51.987Z,2.50
2022-12-27T22:54:20.556Z,2.13
2022-12-27T22:57:09.052Z,2.30
2022-12-27T22:59:38.947Z,1.92
2022-12-27T23:02:07.665Z,2.35
2022-12-27T23:04:36.282Z,1.88
2022-12-27T23:07:05.212Z,1.80
2022-12-27T23:09:39.308Z,2.22
2022-12-27T23:12:11.666Z,2.40
2022-12-27T23:14:41.570Z,2.40
2022-12-27T23:17:10.632Z,1.80
2022-12-27T23:19:39.280Z,2.33
2022-12-27T23:22:07.944Z,2.67
2022-12-27T23:24:36.535Z,2.50
2022-12-27T23:27:05.168Z,1.85
2022-12-27T23:29:33.753Z,1.80
2022-12-27T23:32:03.796Z,1.90
2022-12-27T23:34:32.399Z,1.80
2022-12-27T23:37:01.380Z,1.92
2022-12-27T23:39:30.233Z,2.20
2022-12-27T23:41:58.729Z,2.25
2022-12-27T23:44:34.210Z,1.63
2022-12-27T23:47:06.355Z,2.00
2022-12-27T23:49:35.213Z,1.90
2022-12-27T23:52:04.259Z,1.75
2022-12-27T23:54:32.894Z,1.90
2022-12-27T23:57:20.236Z,1.75
2022-12-27T23:59:50.102Z,2.05
